Bizerte, Tunisia

9:01 AM CET on August 31, 2014 (GMT +0100)
Carthage | Change Station
CLOSE
Current Station
Airport
Location: Tunis-Carthage,
Elevation: 13 ft
Nearby Weather Stations

Elev 13 ft 36.83 °N, 10.23 °E | Updated 31 minutes ago

Partly Cloudy
Partly Cloudy
86 °F
Feels Like 89 °F
N
0
Wind Variable Wind from North

Today
High -- | Low -- °F
--% Chance of Precip.
Yesterday
High -- | Low -- °F
Precip. -- in
5:50 AM 6:51 PM
Waxing Crescent, 28% visible
Pressure 29.92 in
Visibility 6.2 miles
Clouds Few 3000 ft
Heat Index 89 °F
Dew Point 68 °F
Humidity 55%
Rainfall 0.00 in
Snow Depth Not available.
UV 3 out of 12
Pollen Not available.
Air Quality Not available.
Flu Activity Not available.
METAR DTTA 310730Z 00000KT 9999 FEW030 30/20 Q1013 NOSIG

More Conditions Fewer Conditions

Pressure 29.92 in
Visibility 6.2 miles
Clouds Few 3000 ft
Heat Index 89 °F
Dew Point 68 °F
Humidity 55%
Rainfall 0.00 in
Snow Depth Not available.
UV 3 out of 12
Pollen Not available.
Air Quality Not available.
Flu Activity Not available.
METAR DTTA 310730Z 00000KT 9999 FEW030 30/20 Q1013 NOSIG

More Conditions Fewer Conditions

10-Day Weather Forecast

Almanac

Astronomy

Aug. 31, 2014 Rise Set
Actual Time 5:50 AM CET 6:51 PM CET
Civil Twilight 5:23 AM CET 7:18 PM CET
Nautical Twilight 4:51 AM CET 7:49 PM CET
Astronomical Twilight 4:18 AM CET 8:22 PM CET
Moon 11:12 AM CET 10:02 PM CET
Length of Visible Light 13h 54m
Length of Day
13h 01m
Tomorrow will be 2m 16s shorter.
Waxing Crescent, 28% of the Moon is Illuminated
Today
Waxing Crescent
Sep 2
First Quarter
Sep 8
Full
Sep 15
Last Quarter
Sep 24
New

Yesterday's Extremes

Country Highs Country Lows

Community

WunderPhotos

Upload Photos

1,748,816 photos uploaded!

Nearby

Snow Depth

Not available.

Earthquake Activity

City Distance Mag. Time & Date
No recent earthquake activity has been reported nearby.
Minimum magnitude displayed is 2.5.

Coastal Water Temperatures

Place Temperature
No Stations Reporting

Nearby Weather Stations